Time;durP1;ratioP1;P1;durP2;ratioP2;P2;SDS_P1;SDS_P2;PMS_P1;PMS_P2;Temp;Humidity;BMP_temperature;BMP_pressure;BME280_temperature;BME280_humidity;BME280_pressure;Samples;Min_cycle;Max_cycle;Signal;HPM_P1;HPM_P2
2022/08/24 00:00:30;;;;;;;6.40;3.47;;;22.70;56.30;;;;;;5068244;28;20435;-78
2022/08/24 00:02:57;;;;;;;4.93;3.20;;;22.70;56.20;;;;;;5064970;28;20461;-78
2022/08/24 00:05:24;;;;;;;6.25;3.13;;;22.70;56.20;;;;;;5060027;28;20444;-78
2022/08/24 00:07:50;;;;;;;4.90;2.90;;;22.60;56.30;;;;;;5066700;28;20441;-78
2022/08/24 00:10:21;;;;;;;5.97;2.80;;;22.60;56.10;;;;;;5070316;28;20458;-78
2022/08/24 00:12:49;;;;;;;3.20;2.90;;;22.60;56.30;;;;;;5063706;28;20505;-78
2022/08/24 00:15:17;;;;;;;4.55;2.90;;;22.60;56.20;;;;;;5052689;28;20436;-78
2022/08/24 00:17:44;;;;;;;4.70;2.60;;;22.60;57.20;;;;;;5061408;28;20887;-78
2022/08/24 00:20:12;;;;;;;3.95;2.95;;;22.60;56.60;;;;;;5069614;28;20438;-78
2022/08/24 00:22:39;;;;;;;4.05;2.90;;;22.60;57.20;;;;;;5072508;28;20473;-78
2022/08/24 00:25:08;;;;;;;5.47;3.10;;;22.60;56.90;;;;;;5052493;28;20855;-77
2022/08/24 00:27:36;;;;;;;3.40;2.90;;;22.60;57.90;;;;;;5058971;28;20824;-78
2022/08/24 00:30:05;;;;;;;4.13;3.10;;;22.60;57.80;;;;;;5064142;28;20792;-78
2022/08/24 00:32:32;;;;;;;4.10;3.30;;;22.60;58.00;;;;;;5068165;28;21077;-78
2022/08/24 00:34:59;;;;;;;6.05;4.00;;;22.50;58.30;;;;;;5068918;28;20444;-78
2022/08/24 00:37:27;;;;;;;5.30;4.47;;;22.50;59.60;;;;;;5050212;28;20450;-78
2022/08/24 00:39:54;;;;;;;6.85;4.40;;;22.50;61.60;;;;;;5065281;28;20825;-77
2022/08/24 00:42:21;;;;;;;6.20;4.55;;;22.40;62.70;;;;;;5062832;28;20517;-77
2022/08/24 00:44:48;;;;;;;5.40;4.40;;;22.40;62.40;;;;;;5064116;28;20502;-77
2022/08/24 00:47:21;;;;;;;5.72;4.18;;;22.30;62.40;;;;;;5066507;28;20545;-77
2022/08/24 00:49:55;;;;;;;6.35;4.60;;;22.20;62.70;;;;;;5057793;28;20732;-78
2022/08/24 00:52:26;;;;;;;6.50;4.28;;;22.20;63.20;;;;;;5052602;28;20636;-77
2022/08/24 00:54:56;;;;;;;6.22;4.25;;;22.10;63.40;;;;;;5066231;28;20414;-77
2022/08/24 00:57:33;;;;;;;5.43;4.30;;;22.00;63.70;;;;;;5075477;28;20419;-77
2022/08/24 01:00:04;;;;;;;5.70;4.20;;;21.90;64.60;;;;;;5069140;28;20554;-77
2022/08/24 01:02:35;;;;;;;4.45;4.05;;;21.90;64.60;;;;;;5065415;28;20845;-78
2022/08/24 01:05:06;;;;;;;7.53;4.28;;;21.80;64.80;;;;;;5056887;28;20455;-77
2022/08/24 01:07:34;;;;;;;6.30;4.00;;;21.70;65.10;;;;;;5068511;28;20415;-78
2022/08/24 01:10:04;;;;;;;5.55;4.22;;;21.70;65.30;;;;;;5069404;28;20450;-77
2022/08/24 01:12:32;;;;;;;6.05;4.10;;;21.70;65.10;;;;;;5055967;28;20441;-78
2022/08/24 01:15:01;;;;;;;5.57;3.80;;;21.70;65.30;;;;;;5064039;28;20455;-78
2022/08/24 01:20:14;;;;;;;7.55;4.30;;;21.60;66.20;;;;;;5058443;28;20584;-77
2022/08/24 01:22:56;;;;;;;4.50;3.72;;;21.50;66.70;;;;;;5056711;28;20451;-77
2022/08/24 01:25:27;;;;;;;5.78;4.40;;;21.50;67.20;;;;;;5064880;28;20438;-79
2022/08/24 01:27:57;;;;;;;6.00;4.30;;;21.40;67.50;;;;;;5065579;28;20433;-77
2022/08/24 01:30:26;;;;;;;5.45;4.50;;;21.30;67.60;;;;;;5063074;28;20534;-77
2022/08/24 01:32:54;;;;;;;4.43;4.03;;;21.30;67.80;;;;;;5055372;28;20867;-77
2022/08/24 01:35:21;;;;;;;5.50;3.80;;;21.30;68.30;;;;;;5057193;28;20568;-78
2022/08/24 01:37:48;;;;;;;4.82;4.15;;;21.30;68.50;;;;;;5071659;28;20427;-77
2022/08/24 01:40:15;;;;;;;7.23;3.90;;;21.30;68.30;;;;;;5063243;28;20951;-77
2022/08/24 01:42:48;;;;;;;6.93;3.70;;;21.30;68.60;;;;;;5071152;28;20431;-77
2022/08/24 01:45:15;;;;;;;3.90;3.47;;;21.30;68.90;;;;;;5060629;28;20461;-77
2022/08/24 01:47:42;;;;;;;5.53;3.60;;;21.30;68.10;;;;;;5053852;28;20415;-77
2022/08/24 01:50:09;;;;;;;5.68;3.60;;;21.30;68.70;;;;;;5074205;28;20509;-77
2022/08/24 01:52:39;;;;;;;5.00;3.60;;;21.30;68.10;;;;;;5071104;28;20781;-77
2022/08/24 01:55:06;;;;;;;4.00;3.60;;;21.30;68.00;;;;;;5047203;28;20435;-78
2022/08/24 01:57:33;;;;;;;5.20;3.70;;;21.30;68.50;;;;;;5067258;28;20444;-77
2022/08/24 02:00:04;;;;;;;4.88;3.60;;;21.30;69.10;;;;;;5059860;28;20448;-77
2022/08/24 02:02:31;;;;;;;4.65;3.70;;;21.30;68.70;;;;;;5068410;28;20504;-77
2022/08/24 02:04:58;;;;;;;5.85;3.35;;;21.20;68.50;;;;;;5061979;28;20420;-77
2022/08/24 02:07:26;;;;;;;4.30;3.03;;;21.20;68.60;;;;;;5072146;28;20431;-77
2022/08/24 02:09:53;;;;;;;5.20;3.75;;;21.20;68.50;;;;;;5069116;28;20938;-77
2022/08/24 02:12:20;;;;;;;5.07;3.28;;;21.10;67.90;;;;;;5068814;28;20850;-77
2022/08/24 02:14:48;;;;;;;7.10;3.70;;;21.10;67.90;;;;;;5062913;28;20423;-77
2022/08/24 02:17:17;;;;;;;5.20;3.50;;;21.10;68.90;;;;;;5074157;28;20425;-77
2022/08/24 02:19:44;;;;;;;5.38;3.60;;;21.10;68.50;;;;;;5074379;28;20432;-77
2022/08/24 02:22:10;;;;;;;5.65;3.78;;;21.10;68.90;;;;;;5054789;28;20522;-76
2022/08/24 02:24:38;;;;;;;5.97;4.30;;;21.10;69.00;;;;;;5063694;28;20437;-76
2022/08/24 02:27:05;;;;;;;5.63;3.90;;;21.10;69.50;;;;;;5054851;28;20446;-75
2022/08/24 02:29:32;;;;;;;6.65;4.00;;;21.10;70.40;;;;;;5062903;28;20491;-76
2022/08/24 02:31:59;;;;;;;6.90;4.30;;;21.10;70.80;;;;;;5071845;28;20433;-76
2022/08/24 02:34:27;;;;;;;6.03;3.55;;;21.10;70.20;;;;;;5084239;28;20743;-75
2022/08/24 02:36:54;;;;;;;5.82;4.40;;;21.00;70.50;;;;;;5083090;22;20440;-69
2022/08/24 02:39:21;;;;;;;5.03;4.28;;;20.90;70.60;;;;;;5083529;28;20436;-70
2022/08/24 02:41:48;;;;;;;5.53;3.67;;;20.90;70.80;;;;;;5077047;28;20442;-71
2022/08/24 02:44:15;;;;;;;4.30;3.87;;;20.90;70.50;;;;;;5072976;28;20539;-70
2022/08/24 02:46:42;;;;;;;6.07;4.07;;;20.90;70.80;;;;;;5070136;28;20459;-71
2022/08/24 02:49:09;;;;;;;5.53;4.10;;;20.90;70.50;;;;;;5080068;28;20418;-71
2022/08/24 02:51:39;;;;;;;6.10;4.60;;;20.80;70.60;;;;;;5071725;28;20506;-70
2022/08/24 02:54:06;;;;;;;4.68;4.20;;;20.80;70.00;;;;;;5060867;28;20801;-71
2022/08/24 02:56:33;;;;;;;7.57;4.47;;;20.70;69.60;;;;;;5065711;28;20439;-70
2022/08/24 02:59:00;;;;;;;5.10;4.50;;;20.70;70.40;;;;;;5067422;28;20427;-71
2022/08/24 03:01:27;;;;;;;7.65;5.03;;;20.60;70.70;;;;;;5062989;28;20431;-71
2022/08/24 03:03:55;;;;;;;4.50;4.10;;;20.60;71.10;;;;;;5083786;28;21044;-70
2022/08/24 03:06:22;;;;;;;5.68;4.60;;;20.60;71.10;;;;;;5064084;28;20518;-70
2022/08/24 03:08:50;;;;;;;6.03;4.50;;;20.60;70.80;;;;;;5066044;28;20430;-71
2022/08/24 03:11:17;;;;;;;5.60;5.10;;;20.50;71.10;;;;;;5066955;28;21008;-70
2022/08/24 03:13:44;;;;;;;5.80;5.10;;;20.50;71.30;;;;;;5066583;28;20462;-71
2022/08/24 03:16:11;;;;;;;5.78;4.82;;;20.40;71.80;;;;;;5071306;28;20426;-70
2022/08/24 03:18:38;;;;;;;7.07;5.30;;;20.40;71.70;;;;;;5072756;28;20429;-71
2022/08/24 03:21:05;;;;;;;6.97;5.45;;;20.40;72.10;;;;;;5061825;28;20515;-70
2022/08/24 03:23:33;;;;;;;5.87;4.90;;;20.40;72.50;;;;;;5074700;28;20442;-71
2022/08/24 03:26:01;;;;;;;4.93;4.43;;;20.30;72.40;;;;;;5065923;28;20502;-70
2022/08/24 03:28:29;;;;;;;6.38;4.95;;;20.40;72.30;;;;;;5057996;28;20423;-71
2022/08/24 03:30:55;;;;;;;6.95;4.78;;;20.30;72.50;;;;;;5067473;28;20522;-70
2022/08/24 03:33:23;;;;;;;6.85;5.05;;;20.30;72.60;;;;;;5059965;28;20436;-70
2022/08/24 03:35:49;;;;;;;6.10;5.15;;;20.30;72.80;;;;;;5058443;28;20423;-71
2022/08/24 03:38:17;;;;;;;5.50;4.95;;;20.30;73.10;;;;;;5054947;28;20518;-71
2022/08/24 03:40:44;;;;;;;5.87;5.20;;;20.30;73.40;;;;;;5074853;28;20510;-71
2022/08/24 03:43:44;;;;;;;8.00;5.95;;;20.20;73.80;;;;;;5086122;28;20470;-71
2022/08/24 03:46:01;;;;;;;5.50;5.00;;;20.20;74.10;;;;;;5089390;28;20479;-71
2022/08/24 03:48:28;;;;;;;5.70;5.15;;;20.20;74.20;;;;;;5084368;28;20542;-71
2022/08/24 03:50:55;;;;;;;7.32;5.50;;;20.20;73.50;;;;;;5093183;28;20518;-71
2022/08/24 03:53:22;;;;;;;6.32;5.32;;;20.20;72.60;;;;;;5090247;28;20455;-71
2022/08/24 03:55:49;;;;;;;6.10;5.07;;;20.20;72.30;;;;;;5056772;28;20423;-70
2022/08/24 03:58:17;;;;;;;9.13;5.70;;;20.20;72.00;;;;;;5084084;28;20495;-71
2022/08/24 04:00:44;;;;;;;7.30;5.30;;;20.10;72.40;;;;;;5100420;28;20431;-71
2022/08/24 04:03:12;;;;;;;7.18;5.70;;;20.10;72.30;;;;;;5090021;28;20476;-71
2022/08/24 04:05:39;;;;;;;6.07;5.13;;;20.10;72.60;;;;;;5092308;28;20451;-72
2022/08/24 04:08:06;;;;;;;6.45;5.55;;;20.10;72.70;;;;;;5090818;28;20498;-71
2022/08/24 04:10:33;;;;;;;6.25;5.65;;;20.00;73.10;;;;;;5094577;28;20430;-71
2022/08/24 04:13:01;;;;;;;6.28;5.57;;;20.00;73.60;;;;;;5090033;28;20411;-70
2022/08/24 04:15:30;;;;;;;7.70;6.17;;;19.90;73.40;;;;;;5090887;28;20769;-71
2022/08/24 04:17:57;;;;;;;7.70;5.70;;;19.90;73.00;;;;;;5096481;28;20458;-72
2022/08/24 04:20:24;;;;;;;6.40;5.80;;;19.90;73.50;;;;;;5095208;28;20427;-70
2022/08/24 04:22:51;;;;;;;6.60;5.90;;;19.90;73.30;;;;;;5087623;28;20437;-70
2022/08/24 04:25:18;;;;;;;6.90;5.40;;;19.80;73.90;;;;;;5087239;28;20427;-71
2022/08/24 04:27:45;;;;;;;7.45;6.10;;;19.80;72.80;;;;;;5086520;28;20463;-70
2022/08/24 04:30:13;;;;;;;7.20;5.70;;;19.80;73.20;;;;;;5083182;28;20495;-70
2022/08/24 04:32:42;;;;;;;8.32;5.70;;;19.70;73.70;;;;;;5081407;28;20443;-71
2022/08/24 04:35:09;;;;;;;6.43;5.78;;;19.70;73.40;;;;;;5084262;28;20431;-72
2022/08/24 04:37:36;;;;;;;6.17;5.60;;;19.70;73.70;;;;;;5091520;28;20414;-72
2022/08/24 04:40:04;;;;;;;6.35;5.75;;;19.70;73.90;;;;;;5094474;28;20420;-71
2022/08/24 04:42:31;;;;;;;6.88;5.70;;;19.70;73.90;;;;;;5090310;28;20612;-70
2022/08/24 04:44:58;;;;;;;6.00;5.38;;;19.70;74.20;;;;;;5085407;28;20589;-69
2022/08/24 04:47:25;;;;;;;8.48;5.90;;;19.70;75.50;;;;;;5080161;28;20435;-69
2022/08/24 04:49:54;;;;;;;6.20;5.70;;;19.70;74.10;;;;;;5089682;28;21006;-71
2022/08/24 04:52:21;;;;;;;6.35;5.85;;;19.60;74.60;;;;;;5075876;28;20458;-70
2022/08/24 04:54:48;;;;;;;6.60;5.90;;;19.70;74.60;;;;;;5080258;28;20518;-70
2022/08/24 04:57:15;;;;;;;7.20;5.60;;;19.70;74.10;;;;;;5070819;28;20434;-71
2022/08/24 04:59:46;;;;;;;6.50;5.90;;;19.70;74.00;;;;;;5073646;28;20435;-72
2022/08/24 05:02:13;;;;;;;6.25;5.65;;;19.70;73.70;;;;;;5082495;28;20520;-72
2022/08/24 05:04:40;;;;;;;7.33;5.40;;;19.70;71.70;;;;;;5082497;28;20440;-72
2022/08/24 05:07:08;;;;;;;7.30;6.33;;;19.80;70.40;;;;;;5080323;28;20612;-71
2022/08/24 05:09:35;;;;;;;7.93;5.97;;;19.80;70.70;;;;;;5082877;28;20498;-68
2022/08/24 05:12:02;;;;;;;11.30;6.60;;;19.70;69.50;;;;;;5071413;28;21276;-67
2022/08/24 05:14:28;;;;;;;7.97;6.20;;;19.70;68.90;;;;;;5071182;28;20419;-67
2022/08/24 05:16:55;;;;;;;6.70;6.00;;;19.70;68.70;;;;;;5063614;28;20427;-67
2022/08/24 05:19:23;;;;;;;8.70;6.70;;;19.70;69.40;;;;;;5069404;28;20432;-71
2022/08/24 05:21:50;;;;;;;7.53;6.40;;;19.70;69.90;;;;;;5070753;28;20432;-70
2022/08/24 05:24:19;;;;;;;8.68;6.35;;;19.70;69.70;;;;;;5071954;28;20419;-72
2022/08/24 05:26:46;;;;;;;10.45;6.32;;;19.70;69.80;;;;;;5065232;28;20440;-70
2022/08/24 05:29:13;;;;;;;7.00;5.80;;;19.70;68.50;;;;;;5069990;28;20434;-70
2022/08/24 05:31:45;;;;;;;8.13;5.70;;;19.80;67.40;;;;;;5064285;28;20556;-70
2022/08/24 05:34:12;;;;;;;16.00;6.80;;;19.80;66.70;;;;;;5070809;28;20430;-69
2022/08/24 05:36:40;;;;;;;11.82;5.97;;;19.70;67.30;;;;;;5066813;28;20434;-71
2022/08/24 05:39:09;;;;;;;11.43;6.15;;;19.70;68.30;;;;;;5063125;28;20441;-70
2022/08/24 05:41:37;;;;;;;10.13;6.55;;;19.80;68.50;;;;;;5066848;28;20431;-70
2022/08/24 05:44:04;;;;;;;9.55;6.40;;;19.80;67.60;;;;;;5069603;28;20429;-71
2022/08/24 05:46:31;;;;;;;8.80;6.38;;;19.80;67.70;;;;;;5068762;28;20519;-70
2022/08/24 05:48:58;;;;;;;8.43;6.05;;;19.90;67.30;;;;;;5069904;28;20504;-70
2022/08/24 05:51:26;;;;;;;7.35;5.68;;;19.90;66.60;;;;;;5068548;28;20477;-70
2022/08/24 05:53:52;;;;;;;6.15;5.30;;;19.90;66.40;;;;;;5068109;28;20435;-70
2022/08/24 05:56:20;;;;;;;5.65;5.15;;;19.90;65.70;;;;;;5068734;28;20423;-69
2022/08/24 05:58:48;;;;;;;7.50;5.80;;;19.90;65.20;;;;;;5068233;28;20427;-70
2022/08/24 06:01:17;;;;;;;6.28;4.85;;;19.90;64.80;;;;;;5068937;28;20431;-69
2022/08/24 06:03:44;;;;;;;6.65;5.50;;;19.90;65.50;;;;;;5074735;28;20438;-71
2022/08/24 06:06:12;;;;;;;5.60;5.00;;;20.00;64.60;;;;;;5103002;28;20455;-70
2022/08/24 06:08:41;;;;;;;5.60;4.90;;;20.00;64.60;;;;;;5092132;28;20434;-70
2022/08/24 06:11:09;;;;;;;7.00;4.70;;;20.00;64.80;;;;;;5086910;28;20434;-71
2022/08/24 06:13:38;;;;;;;6.00;5.00;;;20.10;64.50;;;;;;5086861;28;20459;-71
2022/08/24 06:16:08;;;;;;;7.50;5.47;;;20.20;63.90;;;;;;5089638;28;20473;-71
2022/08/24 06:18:36;;;;;;;8.30;5.10;;;20.30;63.00;;;;;;5090047;28;20458;-72
2022/08/24 06:21:06;;;;;;;6.18;4.60;;;20.20;62.30;;;;;;5084283;28;20433;-71
2022/08/24 06:23:33;;;;;;;5.93;4.80;;;20.30;61.50;;;;;;5077432;28;20507;-70
2022/08/24 06:28:44;;;;;;;6.93;4.55;;;20.40;61.30;;;;;;5063424;28;20794;-71
2022/08/24 06:31:12;;;;;;;5.40;4.30;;;20.40;61.10;;;;;;5067282;28;20927;-71
2022/08/24 06:33:39;;;;;;;6.65;4.50;;;20.50;61.10;;;;;;5067299;28;20442;-71
2022/08/24 06:36:07;;;;;;;5.10;4.60;;;20.50;61.10;;;;;;5064650;28;20433;-71
2022/08/24 06:38:33;;;;;;;5.55;4.20;;;20.50;60.20;;;;;;5068351;28;21168;-72
2022/08/24 06:41:01;;;;;;;5.55;4.60;;;20.60;60.40;;;;;;5068800;28;20419;-71
2022/08/24 06:43:27;;;;;;;5.40;4.40;;;20.70;59.70;;;;;;5066084;28;20427;-71
2022/08/24 06:45:56;;;;;;;6.18;4.40;;;20.80;60.00;;;;;;5066025;28;20519;-73
2022/08/24 06:48:25;;;;;;;5.43;4.32;;;20.90;59.80;;;;;;5066034;28;20519;-75
2022/08/24 06:50:52;;;;;;;5.60;4.30;;;20.90;59.40;;;;;;5076281;28;20449;-76
2022/08/24 06:53:19;;;;;;;7.20;4.90;;;21.00;59.70;;;;;;5073648;28;20431;-76
2022/08/24 06:55:47;;;;;;;9.18;4.10;;;21.10;59.30;;;;;;5064557;28;20436;-77
2022/08/24 06:58:14;;;;;;;6.30;4.30;;;21.20;59.80;;;;;;5060541;28;20438;-77
2022/08/24 07:00:41;;;;;;;5.88;4.00;;;21.40;58.80;;;;;;5067650;28;20434;-75
2022/08/24 07:03:08;;;;;;;5.37;3.90;;;21.60;58.40;;;;;;5060616;28;20911;-75
2022/08/24 07:05:37;;;;;;;5.03;4.15;;;21.60;58.40;;;;;;5073804;28;20423;-74
2022/08/24 07:08:05;;;;;;;5.55;3.80;;;21.80;57.90;;;;;;5069173;28;20417;-75
2022/08/24 07:10:32;;;;;;;4.53;3.60;;;21.80;57.10;;;;;;5072398;28;20869;-75
2022/08/24 07:13:00;;;;;;;5.65;4.20;;;22.00;57.00;;;;;;5068837;28;20443;-76
2022/08/24 07:15:27;;;;;;;5.63;4.00;;;22.10;55.90;;;;;;5067228;28;20526;-74
2022/08/24 07:17:54;;;;;;;5.97;4.32;;;22.30;55.50;;;;;;5067257;28;20446;-76
2022/08/24 07:20:20;;;;;;;4.63;4.00;;;22.40;54.60;;;;;;5078995;28;20424;-75
2022/08/24 07:22:49;;;;;;;4.32;3.92;;;22.50;55.00;;;;;;5064949;28;20914;-77
2022/08/24 07:25:16;;;;;;;4.22;3.90;;;22.70;54.50;;;;;;5074220;28;20433;-75
2022/08/24 07:27:43;;;;;;;7.85;4.38;;;22.80;53.50;;;;;;5068753;28;20449;-76
2022/08/24 07:30:10;;;;;;;5.22;4.07;;;22.90;54.00;;;;;;5069624;28;20433;-75
2022/08/24 07:32:37;;;;;;;3.60;3.30;;;23.10;53.40;;;;;;5071772;28;20415;-76
2022/08/24 07:35:04;;;;;;;6.88;3.80;;;23.20;53.10;;;;;;5066734;28;20904;-77
2022/08/24 07:37:31;;;;;;;6.15;3.40;;;23.40;52.50;;;;;;5064883;28;20431;-76
2022/08/24 07:39:59;;;;;;;3.90;3.50;;;23.50;52.30;;;;;;5064839;28;20514;-77
2022/08/24 07:42:26;;;;;;;3.60;3.30;;;23.70;52.40;;;;;;5072290;28;20439;-76
2022/08/24 07:44:53;;;;;;;4.40;3.25;;;23.80;51.80;;;;;;5076212;28;20434;-75
2022/08/24 07:47:20;;;;;;;6.00;3.42;;;24.00;51.90;;;;;;5075947;28;20419;-77
2022/08/24 07:49:48;;;;;;;4.60;3.30;;;24.20;50.40;;;;;;5073674;28;20947;-77
2022/08/24 07:52:14;;;;;;;7.45;4.20;;;24.40;50.70;;;;;;5077529;28;20426;-77
2022/08/24 07:54:41;;;;;;;5.05;3.10;;;24.50;50.10;;;;;;5077825;28;20514;-78
2022/08/24 07:57:09;;;;;;;5.65;3.35;;;24.50;49.80;;;;;;5071350;28;20463;-77
2022/08/24 07:59:37;;;;;;;6.38;3.50;;;24.60;49.60;;;;;;5068504;28;20439;-77
2022/08/24 08:02:04;;;;;;;5.78;3.45;;;24.70;49.60;;;;;;5071541;28;20522;-76
2022/08/24 08:04:31;;;;;;;6.57;3.38;;;24.90;49.80;;;;;;5071693;28;20474;-77
2022/08/24 08:06:59;;;;;;;5.03;3.35;;;25.10;48.50;;;;;;5069382;28;20435;-77
2022/08/24 08:09:27;;;;;;;6.07;3.20;;;25.20;48.60;;;;;;5073339;28;20431;-78
2022/08/24 08:11:53;;;;;;;5.65;3.22;;;25.40;47.40;;;;;;5082950;28;20405;-77
2022/08/24 08:14:22;;;;;;;4.43;2.80;;;25.60;47.30;;;;;;5070036;28;20426;-76
2022/08/24 08:16:49;;;;;;;4.88;2.90;;;25.70;47.00;;;;;;5070507;28;20439;-75
2022/08/24 08:19:15;;;;;;;5.85;3.10;;;25.90;46.60;;;;;;5080471;28;20418;-78
2022/08/24 08:24:28;;;;;;;3.38;2.88;;;26.10;46.40;;;;;;5071253;28;20431;-77
2022/08/24 08:26:56;;;;;;;5.82;2.92;;;26.20;45.90;;;;;;5083391;28;20438;-76
2022/08/24 08:29:25;;;;;;;7.57;2.90;;;26.30;45.80;;;;;;5076670;28;20437;-75
2022/08/24 08:31:53;;;;;;;6.93;3.10;;;26.40;45.40;;;;;;5070653;28;20434;-76
2022/08/24 08:34:20;;;;;;;5.07;2.90;;;26.50;45.00;;;;;;5076901;28;20498;-76
2022/08/24 08:36:47;;;;;;;5.35;2.80;;;26.70;44.70;;;;;;5082530;22;21210;31
2022/08/24 08:39:16;;;;;;;6.67;2.90;;;26.70;44.60;;;;;;5088576;22;21342;-74
2022/08/24 08:42:13;;;;;;;5.47;2.95;;;26.90;43.90;;;;;;5075825;28;20488;-73
2022/08/24 08:45:25;;;;;;;8.52;3.20;;;27.00;44.10;;;;;;5067830;28;20438;-73
2022/08/24 08:48:25;;;;;;;5.95;2.72;;;27.30;43.80;;;;;;5031438;28;20420;-74
2022/08/24 08:51:10;;;;;;;8.20;2.90;;;27.50;42.80;;;;;;5063441;28;20527;-76
2022/08/24 08:54:06;;;;;;;6.72;2.90;;;27.80;42.20;;;;;;5053560;28;20519;-73
2022/08/24 08:56:40;;;;;;;7.63;2.80;;;27.80;42.00;;;;;;5061798;28;20768;-74
2022/08/24 08:59:17;;;;;;;8.20;3.20;;;28.10;41.20;;;;;;5065688;28;20419;-75
2022/08/24 09:01:54;;;;;;;7.38;3.10;;;28.30;41.30;;;;;;5075153;28;20440;-75
2022/08/24 09:04:50;;;;;;;7.18;3.30;;;28.60;40.20;;;;;;5066783;28;20426;-74
2022/08/24 09:07:32;;;;;;;4.33;3.10;;;28.70;39.50;;;;;;5066017;28;20415;-75
2022/08/24 09:10:17;;;;;;;5.30;3.60;;;28.80;40.00;;;;;;5065763;28;20479;-75
2022/08/24 09:12:59;;;;;;;6.35;3.13;;;28.90;39.20;;;;;;5060882;28;20421;-75
2022/08/24 09:15:49;;;;;;;4.85;2.80;;;29.00;39.60;;;;;;5070048;28;21003;-75
2022/08/24 09:18:37;;;;;;;4.20;2.90;;;29.20;39.60;;;;;;5072839;28;20559;-75
2022/08/24 09:21:18;;;;;;;6.20;3.67;;;29.20;38.10;;;;;;5056351;28;20447;-75
2022/08/24 09:23:54;;;;;;;6.30;3.00;;;29.30;38.60;;;;;;5063134;28;20416;-75
2022/08/24 09:26:25;;;;;;;3.55;3.10;;;29.50;38.40;;;;;;5054494;28;20417;-75
2022/08/24 09:29:01;;;;;;;5.18;3.20;;;29.60;38.30;;;;;;5069936;28;20423;-75
2022/08/24 09:32:08;;;;;;;5.65;3.30;;;29.90;37.00;;;;;;5071185;28;20421;-75
2022/08/24 09:34:48;;;;;;;6.50;3.05;;;30.00;37.40;;;;;;5030202;28;20417;-75
2022/08/24 09:37:45;;;;;;;3.88;2.97;;;30.30;36.40;;;;;;5021091;28;20608;-76
2022/08/24 09:40:27;;;;;;;5.00;2.92;;;30.50;35.50;;;;;;5053253;28;20463;-75
2022/08/24 09:43:16;;;;;;;5.13;2.60;;;30.60;35.30;;;;;;5062477;28;20453;-75
2022/08/24 09:46:11;;;;;;;4.60;2.70;;;30.80;35.10;;;;;;5059777;28;20470;-76
2022/08/24 09:49:25;;;;;;;3.53;2.60;;;30.90;35.10;;;;;;5070379;28;20505;-75
2022/08/24 09:52:28;;;;;;;4.85;2.70;;;31.20;33.70;;;;;;4992235;28;20470;-75
2022/08/24 09:55:34;;;;;;;3.60;2.40;;;31.50;33.90;;;;;;5062459;28;20727;-74
2022/08/24 09:58:13;;;;;;;3.45;2.30;;;31.70;33.10;;;;;;5063036;28;20771;-75
2022/08/24 10:00:46;;;;;;;6.65;2.90;;;31.80;33.20;;;;;;5063252;28;20447;-76
2022/08/24 10:03:28;;;;;;;5.47;2.40;;;32.00;32.80;;;;;;5056327;28;20616;-76
2022/08/24 10:06:04;;;;;;;2.72;2.33;;;32.20;32.30;;;;;;5060196;28;20507;-75
2022/08/24 10:08:42;;;;;;;5.60;2.70;;;32.30;31.60;;;;;;5062052;28;21086;-76
2022/08/24 10:11:21;;;;;;;2.50;2.30;;;32.60;31.20;;;;;;5064605;28;20436;-75
2022/08/24 10:13:54;;;;;;;2.97;2.60;;;32.50;31.00;;;;;;5063605;28;21103;-76
2022/08/24 10:16:32;;;;;;;3.42;2.20;;;32.60;30.90;;;;;;5068463;28;20929;-74
2022/08/24 10:19:15;;;;;;;2.50;2.30;;;32.70;31.00;;;;;;5074055;28;20507;-76
2022/08/24 10:21:58;;;;;;;3.70;2.50;;;33.00;31.60;;;;;;5068193;28;20439;-76
2022/08/24 10:24:52;;;;;;;3.65;2.00;;;33.30;29.90;;;;;;5055984;28;20437;-76
2022/08/24 10:27:36;;;;;;;3.70;2.80;;;33.60;30.00;;;;;;5058818;28;20894;-76
2022/08/24 10:30:51;;;;;;;3.42;2.50;;;33.80;29.80;;;;;;5061772;28;20436;-74
2022/08/24 10:33:22;;;;;;;3.78;2.40;;;33.80;29.60;;;;;;5051945;28;20863;-76
2022/08/24 10:36:20;;;;;;;3.60;2.40;;;33.90;29.30;;;;;;5058798;28;20443;-74
2022/08/24 10:45:18;;;;;;;3.70;2.10;;;34.60;28.00;;;;;;5060821;28;20471;-75
2022/08/24 10:48:04;;;;;;;4.20;2.30;;;34.70;27.60;;;;;;5071881;28;20967;-76
2022/08/24 10:50:46;;;;;;;3.85;2.10;;;34.80;27.80;;;;;;5073124;28;20438;-75
2022/08/24 10:53:24;;;;;;;3.25;2.30;;;34.70;27.00;;;;;;5060138;28;21552;-76
2022/08/24 10:56:02;;;;;;;3.25;2.10;;;34.70;27.80;;;;;;5065196;28;21352;-76
2022/08/24 10:58:56;;;;;;;2.20;2.00;;;34.90;27.90;;;;;;5063078;28;20438;-75
2022/08/24 11:01:29;;;;;;;2.20;2.00;;;35.10;27.60;;;;;;5069004;28;20433;-74
2022/08/24 11:04:00;;;;;;;3.58;1.80;;;35.20;27.30;;;;;;5074334;28;20479;-75
2022/08/24 11:06:31;;;;;;;3.42;2.10;;;35.40;26.90;;;;;;5069081;28;20422;-75
2022/08/24 11:09:02;;;;;;;2.20;2.00;;;35.30;26.80;;;;;;5063208;28;20427;-75
2022/08/24 11:11:32;;;;;;;1.90;1.80;;;35.30;26.80;;;;;;5064221;28;20495;-76
2022/08/24 11:14:01;;;;;;;3.35;2.10;;;35.40;26.30;;;;;;5063734;28;20435;-76
2022/08/24 11:16:34;;;;;;;2.60;1.70;;;35.70;26.70;;;;;;5055069;28;20432;-75
2022/08/24 11:19:03;;;;;;;2.30;1.50;;;36.00;25.40;;;;;;5064736;28;20430;-76
2022/08/24 11:21:44;;;;;;;1.70;1.60;;;36.20;25.80;;;;;;5076635;28;20462;-76
2022/08/24 11:24:25;;;;;;;2.22;1.48;;;36.30;25.70;;;;;;5056110;28;20420;-75
2022/08/24 11:26:56;;;;;;;1.50;1.40;;;36.40;25.90;;;;;;5063383;28;20411;-75
2022/08/24 11:29:30;;;;;;;2.47;1.50;;;36.40;25.40;;;;;;5075689;28;20827;-75
2022/08/24 11:31:59;;;;;;;2.30;1.50;;;36.40;25.30;;;;;;5051195;28;20493;-76
2022/08/24 11:34:36;;;;;;;1.30;1.20;;;36.50;25.40;;;;;;5055837;28;20474;-76
2022/08/24 11:37:04;;;;;;;1.77;1.20;;;36.40;24.80;;;;;;5058688;28;20477;-76
2022/08/24 11:39:34;;;;;;;1.85;1.20;;;36.50;25.50;;;;;;5062275;28;20431;-76
2022/08/24 11:42:10;;;;;;;1.77;1.08;;;36.60;25.10;;;;;;5051557;28;20457;-76
2022/08/24 11:44:48;;;;;;;1.92;1.10;;;36.80;24.40;;;;;;5056019;28;20523;-76
2022/08/24 11:47:44;;;;;;;1.70;1.10;;;37.00;24.80;;;;;;5061879;28;20495;-76
2022/08/24 11:50:24;;;;;;;1.70;1.00;;;37.30;24.00;;;;;;5056595;28;20432;-77
2022/08/24 11:53:02;;;;;;;2.00;0.80;;;37.10;23.60;;;;;;5056905;28;20435;-75
2022/08/24 11:55:35;;;;;;;1.88;0.90;;;36.90;23.30;;;;;;5058701;28;21003;-77
2022/08/24 11:58:08;;;;;;;1.05;0.90;;;36.90;23.50;;;;;;5057516;28;20432;-76
2022/08/24 12:00:45;;;;;;;1.37;0.90;;;37.00;23.50;;;;;;5066681;28;20443;-78
2022/08/24 12:03:32;;;;;;;1.33;1.00;;;36.90;23.40;;;;;;5066676;28;20716;-78
2022/08/24 12:06:04;;;;;;;2.10;0.90;;;37.00;23.20;;;;;;5053309;28;20419;-80
2022/08/24 12:08:36;;;;;;;2.70;1.00;;;37.10;22.90;;;;;;5062012;28;20526;-79
2022/08/24 12:11:12;;;;;;;1.08;0.80;;;37.30;22.60;;;;;;5056541;28;20886;-78
2022/08/24 12:13:47;;;;;;;1.73;1.00;;;37.50;23.40;;;;;;5055351;28;20953;-78
2022/08/24 12:16:22;;;;;;;1.40;0.80;;;37.50;22.70;;;;;;5061897;28;20639;-78
2022/08/24 12:18:57;;;;;;;0.90;0.90;;;37.50;22.40;;;;;;5057060;28;20527;-78
2022/08/24 12:21:30;;;;;;;1.15;0.90;;;37.50;22.90;;;;;;5063199;28;20435;-77
2022/08/24 12:24:02;;;;;;;2.50;0.90;;;37.40;21.90;;;;;;5067022;28;20900;-76
2022/08/24 12:26:32;;;;;;;2.10;1.00;;;37.40;22.60;;;;;;5064165;28;20513;-78
2022/08/24 12:29:02;;;;;;;1.50;0.90;;;37.50;22.00;;;;;;5073413;28;20430;-76
2022/08/24 12:31:37;;;;;;;1.40;1.00;;;37.80;22.70;;;;;;5063354;28;20840;-77
2022/08/24 12:34:13;;;;;;;2.38;1.10;;;37.70;22.50;;;;;;5063037;28;20438;-77
2022/08/24 12:36:51;;;;;;;1.30;1.10;;;37.70;22.10;;;;;;5064612;28;20438;-77
2022/08/24 12:39:22;;;;;;;1.20;0.95;;;37.90;21.90;;;;;;5073774;28;20448;-77
2022/08/24 12:41:57;;;;;;;1.90;1.13;;;38.00;21.80;;;;;;5062914;28;20466;-77
2022/08/24 12:44:31;;;;;;;1.98;0.90;;;38.10;22.70;;;;;;5067383;28;20410;-77
2022/08/24 12:46:58;;;;;;;1.50;1.27;;;38.20;21.70;;;;;;5068440;28;20423;-76
2022/08/24 12:49:30;;;;;;;1.40;0.90;;;38.20;21.10;;;;;;5072063;28;20830;-77
2022/08/24 12:52:22;;;;;;;1.88;1.27;;;38.00;21.60;;;;;;5069000;28;20438;-76
2022/08/24 12:55:19;;;;;;;2.30;1.00;;;38.00;21.60;;;;;;5076949;28;20433;-75
2022/08/24 12:57:57;;;;;;;1.40;0.90;;;38.00;21.40;;;;;;5062561;28;20432;-74
2022/08/24 13:00:28;;;;;;;2.13;1.15;;;38.00;21.00;;;;;;5063158;28;20432;-74
2022/08/24 13:02:58;;;;;;;2.30;1.10;;;38.10;21.20;;;;;;5057061;28;20447;-75
2022/08/24 13:05:40;;;;;;;1.98;1.10;;;38.20;21.30;;;;;;5065116;28;20439;-75
2022/08/24 13:08:14;;;;;;;3.10;1.10;;;38.20;21.50;;;;;;5069201;28;20418;-76
2022/08/24 13:10:44;;;;;;;2.77;1.30;;;38.20;22.20;;;;;;5077007;28;20427;-74
2022/08/24 13:13:16;;;;;;;1.30;1.10;;;38.30;21.70;;;;;;5064296;28;20457;-75
2022/08/24 13:16:02;;;;;;;1.20;0.90;;;38.40;21.80;;;;;;5063785;28;20921;-74
2022/08/24 13:19:10;;;;;;;1.43;1.10;;;38.40;20.50;;;;;;5075420;28;20434;-75
2022/08/24 13:21:49;;;;;;;2.28;1.00;;;38.10;20.80;;;;;;5071937;28;20432;-75
2022/08/24 13:24:51;;;;;;;1.95;1.00;;;37.80;21.10;;;;;;5066030;28;21072;-76